createdAt,value
2018-10-21T00:00:08.403Z,30.87
2018-10-21T00:02:36.830Z,22.57
2018-10-21T00:05:06.747Z,27.67
2018-10-21T00:07:35.241Z,23.17
2018-10-21T00:10:04.753Z,23.93
2018-10-21T00:12:33.764Z,20.53
2018-10-21T00:15:02.229Z,21.70
2018-10-21T00:17:30.684Z,23.23
2018-10-21T00:20:00.123Z,20.97
2018-10-21T00:22:28.590Z,22.50
2018-10-21T00:24:57.135Z,20.17
2018-10-21T00:27:25.702Z,22.97
2018-10-21T00:29:54.415Z,24.10
2018-10-21T00:32:27.056Z,21.53
2018-10-21T00:34:55.510Z,30.97
2018-10-21T00:37:24.010Z,19.70
2018-10-21T00:39:52.491Z,19.43
2018-10-21T00:42:20.981Z,21.70
2018-10-21T00:44:49.456Z,21.90
2018-10-21T00:47:17.934Z,23.83
2018-10-21T00:51:10.755Z,25.10
2018-10-21T00:53:39.203Z,21.87
2018-10-21T00:56:07.689Z,19.90
2018-10-21T00:58:36.152Z,26.13
2018-10-21T01:01:05.167Z,21.43
2018-10-21T01:03:34.235Z,24.00
2018-10-21T01:06:03.247Z,22.50
2018-10-21T01:08:31.768Z,26.77
2018-10-21T01:11:00.257Z,26.93
2018-10-21T01:13:28.718Z,21.23
2018-10-21T01:15:57.154Z,26.13
2018-10-21T01:18:25.638Z,23.13
2018-10-21T01:20:54.148Z,24.67
2018-10-21T01:23:22.629Z,23.77
2018-10-21T01:25:51.103Z,24.67
2018-10-21T01:28:19.605Z,22.07
2018-10-21T01:30:48.276Z,20.40
2018-10-21T01:33:17.042Z,24.20
2018-10-21T01:35:45.682Z,23.93
2018-10-21T01:38:14.554Z,22.50
2018-10-21T01:40:51.071Z,23.20
2018-10-21T01:43:22.833Z,26.53
2018-10-21T01:45:56.339Z,22.93
2018-10-21T01:48:28.056Z,23.33
2018-10-21T01:50:57.779Z,24.60
2018-10-21T01:53:29.940Z,19.57
2018-10-21T01:58:43.283Z,20.63
2018-10-21T02:01:12.503Z,23.43
2018-10-21T02:03:41.580Z,24.23
2018-10-21T02:06:10.054Z,23.13
2018-10-21T02:08:38.533Z,23.33
2018-10-21T02:11:07.006Z,20.80
2018-10-21T02:13:35.461Z,24.37
2018-10-21T02:16:04.009Z,21.33
2018-10-21T02:18:32.542Z,23.13
2018-10-21T02:21:01.097Z,24.47
2018-10-21T02:23:29.476Z,22.13
2018-10-21T02:25:57.939Z,20.17
2018-10-21T02:28:26.387Z,23.50
2018-10-21T02:30:54.909Z,23.97
2018-10-21T02:33:23.448Z,24.17
2018-10-21T02:35:51.897Z,22.20
2018-10-21T02:38:20.357Z,21.80
2018-10-21T02:41:27.786Z,24.27
2018-10-21T02:43:56.224Z,20.87
2018-10-21T02:46:25.162Z,22.77
2018-10-21T02:48:54.750Z,23.23
2018-10-21T02:51:23.262Z,21.20
2018-10-21T02:53:52.022Z,21.57
2018-10-21T02:56:20.573Z,23.33
2018-10-21T02:58:49.512Z,24.27
2018-10-21T03:01:18.033Z,23.00
2018-10-21T03:03:46.532Z,21.60
2018-10-21T03:06:15.106Z,22.57
2018-10-21T03:08:44.112Z,20.53
2018-10-21T03:11:12.568Z,19.43
2018-10-21T03:13:41.034Z,22.83
2018-10-21T03:16:09.492Z,21.37
2018-10-21T03:18:37.930Z,19.90
2018-10-21T03:21:06.482Z,21.13
2018-10-21T03:23:35.492Z,23.10
2018-10-21T03:26:04.212Z,23.97
2018-10-21T03:28:33.303Z,22.50
2018-10-21T03:31:02.095Z,21.23
2018-10-21T03:33:31.174Z,22.27
2018-10-21T03:35:59.737Z,22.53
2018-10-21T03:38:28.188Z,23.67
2018-10-21T03:40:56.713Z,24.13
2018-10-21T03:43:25.212Z,21.37
2018-10-21T03:45:53.710Z,21.50
2018-10-21T03:48:22.246Z,21.00
2018-10-21T03:50:50.745Z,22.57
2018-10-21T03:53:19.226Z,19.73
2018-10-21T03:55:47.798Z,21.23
2018-10-21T03:58:16.309Z,21.43
2018-10-21T04:00:44.746Z,19.73
2018-10-21T04:03:13.213Z,22.97
2018-10-21T04:05:41.649Z,22.80
2018-10-21T04:08:10.128Z,21.63
2018-10-21T04:10:38.645Z,21.03
2018-10-21T04:13:07.712Z,23.27
2018-10-21T04:15:36.167Z,23.10
2018-10-21T04:18:04.618Z,23.57
2018-10-21T04:20:33.113Z,26.73
2018-10-21T04:23:02.705Z,25.17
2018-10-21T04:25:32.544Z,18.43
2018-10-21T04:28:02.099Z,18.30
2018-10-21T04:30:35.655Z,23.40
2018-10-21T04:33:40.290Z,18.90
2018-10-21T04:36:10.769Z,17.97
2018-10-21T04:38:50.386Z,20.83
2018-10-21T04:41:18.856Z,17.47
2018-10-21T04:43:47.325Z,22.30
2018-10-21T04:46:15.845Z,21.37
2018-10-21T04:48:44.281Z,21.57
2018-10-21T04:51:12.774Z,23.27
2018-10-21T04:53:41.240Z,26.37
2018-10-21T04:56:09.771Z,26.50
2018-10-21T04:58:38.224Z,25.23
2018-10-21T05:01:06.677Z,21.90
2018-10-21T05:03:35.158Z,21.60
2018-10-21T05:06:03.683Z,19.63
2018-10-21T05:08:32.126Z,18.70
2018-10-21T05:11:00.575Z,19.93
2018-10-21T05:13:29.099Z,24.03
2018-10-21T05:15:57.554Z,25.23
2018-10-21T05:18:26.053Z,19.23
2018-10-21T05:20:54.523Z,24.90
2018-10-21T05:23:22.981Z,23.83
2018-10-21T05:25:51.469Z,23.40
2018-10-21T05:28:19.959Z,24.07
2018-10-21T05:30:48.386Z,24.87
2018-10-21T05:33:17.399Z,27.20
2018-10-21T05:35:45.854Z,23.30
2018-10-21T05:38:14.291Z,23.67
2018-10-21T05:40:42.866Z,25.53
2018-10-21T05:43:11.249Z,26.20
2018-10-21T05:45:39.728Z,28.10
2018-10-21T05:48:08.156Z,36.30
2018-10-21T05:50:36.605Z,21.23
2018-10-21T05:53:05.182Z,24.33
2018-10-21T05:55:33.626Z,27.20
2018-10-21T05:58:02.160Z,20.93
2018-10-21T06:00:30.547Z,26.00
2018-10-21T06:02:59.741Z,22.83
2018-10-21T06:05:39.596Z,27.07
2018-10-21T06:08:09.109Z,24.70
2018-10-21T06:10:37.619Z,26.63
2018-10-21T06:13:06.602Z,23.93
2018-10-21T06:15:35.078Z,25.43
2018-10-21T06:18:04.651Z,24.13
2018-10-21T06:20:36.749Z,22.93
2018-10-21T06:23:05.496Z,25.63
2018-10-21T06:25:34.016Z,26.07
2018-10-21T06:28:02.512Z,27.23
2018-10-21T06:30:30.971Z,22.87
2018-10-21T06:32:59.532Z,25.97
2018-10-21T06:35:27.976Z,25.57
2018-10-21T06:37:56.513Z,25.57
2018-10-21T06:40:25.039Z,20.20
2018-10-21T06:42:53.522Z,28.50
2018-10-21T06:45:22.641Z,22.40
2018-10-21T06:47:50.925Z,20.23
2018-10-21T06:50:20.737Z,20.60
2018-10-21T06:52:49.725Z,21.77
2018-10-21T06:55:18.288Z,41.50
2018-10-21T06:57:47.002Z,31.83
2018-10-21T07:00:16.090Z,33.40
2018-10-21T07:02:44.589Z,24.37
2018-10-21T07:06:27.276Z,31.93
2018-10-21T07:08:58.969Z,29.30
2018-10-21T07:11:27.424Z,18.70
2018-10-21T07:13:55.886Z,24.33
2018-10-21T07:16:24.957Z,28.83
2018-10-21T07:18:53.602Z,25.33
2018-10-21T07:21:22.074Z,17.83
2018-10-21T07:23:50.512Z,16.93
2018-10-21T07:26:19.933Z,15.90
2018-10-21T07:28:48.396Z,16.23
2018-10-21T07:31:16.866Z,15.00
2018-10-21T07:33:45.309Z,14.80
2018-10-21T07:36:13.794Z,17.37
2018-10-21T07:38:42.205Z,14.97
2018-10-21T07:41:10.649Z,13.80
2018-10-21T07:43:39.108Z,13.83
2018-10-21T07:46:07.612Z,19.37
2018-10-21T07:48:36.061Z,17.67
2018-10-21T07:51:04.531Z,19.33
2018-10-21T07:53:32.944Z,20.40
2018-10-21T07:56:01.439Z,18.27
2018-10-21T07:58:30.798Z,16.43
2018-10-21T08:00:59.279Z,15.77
2018-10-21T08:03:27.733Z,16.13
2018-10-21T08:06:19.883Z,15.20
2018-10-21T08:08:48.484Z,15.70
2018-10-21T08:11:16.889Z,14.87
2018-10-21T08:13:45.429Z,15.63
2018-10-21T08:16:14.140Z,15.90
2018-10-21T08:18:42.402Z,15.07
2018-10-21T08:21:10.946Z,13.13
2018-10-21T08:23:39.382Z,15.43
2018-10-21T08:26:07.862Z,14.20
2018-10-21T08:28:36.321Z,14.40
2018-10-21T08:31:05.002Z,15.40
2018-10-21T08:33:33.458Z,14.20
2018-10-21T08:36:02.229Z,15.47
2018-10-21T08:38:30.641Z,17.23
2018-10-21T08:40:59.120Z,14.70
2018-10-21T08:43:27.943Z,22.03
2018-10-21T08:45:56.401Z,15.40
2018-10-21T08:48:24.883Z,13.57
2018-10-21T08:50:53.392Z,16.13
2018-10-21T08:53:22.248Z,14.27
2018-10-21T08:55:50.842Z,19.87
2018-10-21T08:58:19.290Z,16.97
2018-10-21T09:00:47.748Z,18.80
2018-10-21T09:03:16.228Z,14.03
2018-10-21T09:05:44.723Z,15.67
2018-10-21T09:08:13.164Z,14.57
2018-10-21T09:10:41.793Z,13.70
2018-10-21T09:13:10.194Z,12.80
2018-10-21T09:15:38.682Z,18.13
2018-10-21T09:18:07.826Z,12.73
2018-10-21T09:20:37.180Z,13.40
2018-10-21T09:23:05.739Z,11.80
2018-10-21T09:25:34.332Z,14.33
2018-10-21T09:28:03.022Z,14.83
2018-10-21T09:30:32.912Z,12.80
2018-10-21T09:33:01.371Z,12.97
2018-10-21T09:35:29.872Z,12.90
2018-10-21T09:37:58.356Z,12.53
2018-10-21T09:40:26.899Z,10.57
2018-10-21T09:42:55.371Z,12.17
2018-10-21T09:45:23.889Z,10.60
2018-10-21T09:47:52.373Z,13.22
2018-10-21T09:50:21.519Z,10.30
2018-10-21T09:52:50.003Z,10.03
2018-10-21T09:55:19.135Z,10.10
2018-10-21T09:57:48.431Z,9.47
2018-10-21T10:00:22.381Z,9.27
2018-10-21T10:02:57.002Z,9.80
2018-10-21T10:05:26.329Z,11.40
2018-10-21T10:07:55.776Z,9.63
2018-10-21T10:10:24.986Z,9.90
2018-10-21T10:12:53.606Z,8.50
2018-10-21T10:15:22.226Z,12.67
2018-10-21T10:17:50.794Z,10.07
2018-10-21T10:20:19.161Z,12.53
2018-10-21T10:22:47.606Z,12.57
2018-10-21T10:25:16.131Z,7.87
2018-10-21T10:27:44.585Z,10.53
2018-10-21T10:30:13.633Z,10.17
2018-10-21T10:32:43.339Z,9.50
2018-10-21T10:35:13.031Z,9.13
2018-10-21T10:37:41.830Z,12.53
2018-10-21T10:40:11.703Z,10.10
2018-10-21T10:42:40.596Z,9.77
2018-10-21T10:45:09.285Z,11.53
2018-10-21T10:47:38.419Z,9.80
2018-10-21T10:50:08.538Z,8.77
2018-10-21T10:52:37.203Z,10.20
2018-10-21T10:55:06.363Z,12.10
2018-10-21T10:57:34.823Z,12.93
2018-10-21T11:00:03.509Z,8.40
2018-10-21T11:02:31.879Z,7.17
2018-10-21T11:05:00.399Z,8.93
2018-10-21T11:07:28.906Z,7.10
2018-10-21T11:09:57.961Z,9.23
2018-10-21T11:12:26.481Z,8.83
2018-10-21T11:14:54.986Z,9.77
2018-10-21T11:17:23.476Z,8.97
2018-10-21T11:19:51.958Z,8.50
2018-10-21T11:22:20.461Z,8.27
2018-10-21T11:24:49.628Z,10.67
2018-10-21T11:27:18.745Z,8.60
2018-10-21T11:29:48.643Z,7.17
2018-10-21T11:32:17.145Z,7.20
2018-10-21T11:34:45.762Z,5.80
2018-10-21T11:37:14.905Z,8.77
2018-10-21T11:39:43.382Z,7.83
2018-10-21T11:42:12.110Z,7.60
2018-10-21T11:44:40.721Z,8.83
2018-10-21T11:47:09.236Z,8.27
2018-10-21T11:49:37.674Z,7.23
2018-10-21T11:52:07.307Z,8.53
2018-10-21T11:54:35.777Z,9.20
2018-10-21T11:57:04.683Z,7.80
2018-10-21T11:59:33.156Z,7.73
2018-10-21T12:02:01.659Z,9.13
2018-10-21T12:04:30.142Z,7.30
2018-10-21T12:06:58.728Z,7.97
2018-10-21T12:09:27.201Z,6.53
2018-10-21T12:11:55.662Z,6.57
2018-10-21T12:14:24.175Z,5.47
2018-10-21T12:16:52.632Z,4.93
2018-10-21T12:19:21.082Z,6.03
2018-10-21T12:21:49.661Z,6.20
2018-10-21T12:24:18.223Z,6.70
2018-10-21T12:26:46.718Z,5.20
2018-10-21T12:29:15.284Z,6.00
2018-10-21T12:31:43.728Z,6.77
2018-10-21T12:34:12.389Z,5.83
2018-10-21T12:36:41.472Z,7.43
2018-10-21T12:39:12.320Z,5.70
2018-10-21T12:41:41.747Z,6.37
2018-10-21T12:44:10.213Z,4.63
2018-10-21T12:46:39.378Z,8.07
2018-10-21T12:49:07.932Z,3.97
2018-10-21T12:51:37.347Z,3.73
2018-10-21T12:54:06.262Z,4.60
2018-10-21T12:56:34.729Z,5.13
2018-10-21T12:59:03.994Z,4.40
2018-10-21T13:01:32.528Z,5.93
2018-10-21T13:04:01.050Z,5.10
2018-10-21T13:06:30.079Z,4.07
2018-10-21T13:08:58.522Z,3.93
2018-10-21T13:11:30.675Z,5.27
2018-10-21T13:13:59.099Z,6.17
2018-10-21T13:16:28.561Z,7.53
2018-10-21T13:18:57.778Z,6.07
2018-10-21T13:21:26.314Z,4.40
2018-10-21T13:23:54.831Z,3.80
2018-10-21T13:26:23.543Z,4.30
2018-10-21T13:28:52.063Z,5.23
2018-10-21T13:31:20.461Z,3.80
2018-10-21T13:33:48.960Z,3.53
2018-10-21T13:36:18.169Z,5.03
2018-10-21T13:38:46.649Z,3.70
2018-10-21T13:41:15.129Z,3.83
2018-10-21T13:43:43.634Z,3.67
2018-10-21T13:46:12.409Z,3.50
2018-10-21T13:48:40.968Z,3.33
2018-10-21T13:51:09.449Z,6.10
2018-10-21T13:53:37.944Z,3.20
2018-10-21T13:56:07.048Z,7.93
2018-10-21T13:58:35.676Z,2.63
2018-10-21T14:01:04.608Z,8.63
2018-10-21T14:03:33.964Z,6.40
2018-10-21T14:06:02.497Z,9.27
2018-10-21T14:08:31.090Z,5.90
2018-10-21T14:10:59.556Z,5.33
2018-10-21T14:13:28.633Z,2.47
2018-10-21T14:15:57.245Z,4.37
2018-10-21T14:18:25.770Z,3.17
2018-10-21T14:20:54.314Z,5.20
2018-10-21T14:23:22.789Z,7.13
2018-10-21T14:25:53.337Z,4.43
2018-10-21T14:28:21.986Z,4.93
2018-10-21T14:30:50.520Z,3.83
2018-10-21T14:33:19.086Z,4.73
2018-10-21T14:35:47.511Z,5.40
2018-10-21T14:38:16.033Z,4.60
2018-10-21T14:40:44.497Z,4.80
2018-10-21T14:43:12.997Z,7.07
2018-10-21T14:45:41.509Z,2.60
2018-10-21T14:48:10.531Z,4.50
2018-10-21T14:50:39.055Z,4.77
2018-10-21T14:53:07.619Z,4.93
2018-10-21T14:55:36.837Z,3.37
2018-10-21T14:58:05.392Z,3.57
2018-10-21T15:00:34.159Z,4.47
2018-10-21T15:03:02.543Z,9.17
2018-10-21T15:05:31.055Z,2.87
2018-10-21T15:07:59.648Z,4.07
2018-10-21T15:10:28.086Z,4.90
2018-10-21T15:12:56.541Z,5.97
2018-10-21T15:15:25.189Z,3.67
2018-10-21T15:17:53.593Z,3.70
2018-10-21T15:20:22.665Z,5.77
2018-10-21T15:22:51.284Z,3.80
2018-10-21T15:25:19.728Z,6.00
2018-10-21T15:27:48.416Z,3.37
2018-10-21T15:30:18.945Z,4.00
2018-10-21T15:32:47.510Z,7.30
2018-10-21T15:35:16.065Z,3.07
2018-10-21T15:37:44.539Z,3.97
2018-10-21T15:40:13.887Z,6.77
2018-10-21T15:42:42.518Z,5.57
2018-10-21T15:45:12.444Z,4.27
2018-10-21T15:47:41.045Z,5.87
2018-10-21T15:50:09.747Z,7.50
2018-10-21T15:52:38.223Z,6.83
2018-10-21T15:55:07.513Z,5.10
2018-10-21T15:57:35.980Z,3.47
2018-10-21T16:00:05.092Z,4.77
2018-10-21T16:02:33.762Z,5.70
2018-10-21T16:05:02.503Z,3.87
2018-10-21T16:07:31.053Z,5.83
2018-10-21T16:09:59.676Z,5.10
2018-10-21T16:12:28.412Z,5.13
2018-10-21T16:14:57.441Z,7.07
2018-10-21T16:17:26.860Z,6.83
2018-10-21T16:19:55.364Z,3.70
2018-10-21T16:22:23.865Z,5.53
2018-10-21T16:24:52.508Z,4.37
2018-10-21T16:27:21.085Z,7.20
2018-10-21T16:29:49.717Z,4.80
2018-10-21T16:32:18.333Z,6.80
2018-10-21T16:34:46.731Z,8.37
2018-10-21T16:37:15.188Z,7.33
2018-10-21T16:39:43.607Z,5.23
2018-10-21T16:42:12.121Z,6.33
2018-10-21T16:44:40.597Z,8.43
2018-10-21T16:47:09.190Z,7.63
2018-10-21T16:49:38.419Z,4.97
2018-10-21T16:52:06.933Z,7.93
2018-10-21T16:54:36.798Z,10.00
2018-10-21T16:57:05.888Z,6.43
2018-10-21T16:59:34.414Z,5.60
2018-10-21T17:02:02.871Z,8.33
2018-10-21T17:04:31.335Z,7.23
2018-10-21T17:07:00.566Z,6.83
2018-10-21T17:09:29.151Z,6.30
2018-10-21T17:11:57.566Z,4.97
2018-10-21T17:14:26.070Z,8.07
2018-10-21T17:16:54.541Z,3.70
2018-10-21T17:19:23.758Z,5.27
2018-10-21T17:21:52.278Z,8.00
2018-10-21T17:24:21.575Z,10.03
2018-10-21T17:26:50.977Z,9.13
2018-10-21T17:29:19.563Z,5.90
2018-10-21T17:31:48.039Z,7.63
2018-10-21T17:34:16.611Z,11.70
2018-10-21T17:36:45.067Z,11.23
2018-10-21T17:39:15.251Z,11.10
2018-10-21T17:41:44.213Z,11.93
2018-10-21T17:44:13.227Z,10.83
2018-10-21T17:46:43.430Z,13.80
2018-10-21T17:49:12.043Z,13.33
2018-10-21T17:51:40.930Z,12.40
2018-10-21T17:54:09.457Z,14.00
2018-10-21T17:56:43.422Z,16.20
2018-10-21T17:59:12.165Z,14.43
2018-10-21T18:01:40.830Z,13.97
2018-10-21T18:04:09.362Z,18.00
2018-10-21T18:06:37.920Z,14.80
2018-10-21T18:09:08.982Z,11.53
2018-10-21T18:11:37.511Z,15.20
2018-10-21T18:14:06.275Z,12.13
2018-10-21T18:16:35.212Z,14.40
2018-10-21T18:19:03.817Z,14.10
2018-10-21T18:21:32.345Z,13.73
2018-10-21T18:24:00.902Z,11.93
2018-10-21T18:26:29.589Z,17.80
2018-10-21T18:28:58.350Z,15.57
2018-10-21T18:31:26.966Z,14.57
2018-10-21T18:33:55.670Z,15.10
2018-10-21T18:36:24.585Z,15.23
2018-10-21T18:38:53.088Z,12.37
2018-10-21T18:41:21.575Z,14.33
2018-10-21T18:43:50.117Z,12.70
2018-10-21T18:46:18.672Z,27.80
2018-10-21T18:48:47.202Z,15.43
2018-10-21T18:51:15.933Z,16.03
2018-10-21T18:53:45.833Z,16.83
2018-10-21T18:56:14.353Z,15.93
2018-10-21T18:58:43.405Z,15.20
2018-10-21T19:01:11.924Z,15.87
2018-10-21T19:03:40.363Z,16.97
2018-10-21T19:06:08.887Z,13.67
2018-10-21T19:08:37.389Z,20.90
2018-10-21T19:11:05.936Z,22.30
2018-10-21T19:13:34.580Z,22.20
2018-10-21T19:16:02.982Z,19.77
2018-10-21T19:18:31.489Z,19.93
2018-10-21T19:21:00.142Z,21.53
2018-10-21T19:23:28.781Z,17.33
2018-10-21T19:25:57.312Z,18.23
2018-10-21T19:28:25.807Z,16.73
2018-10-21T19:30:54.365Z,17.60
2018-10-21T19:33:22.986Z,18.40
2018-10-21T19:35:51.482Z,32.90
2018-10-21T19:38:19.976Z,32.93
2018-10-21T19:40:48.477Z,36.70
2018-10-21T19:43:17.045Z,33.63
2018-10-21T19:45:45.603Z,31.70
2018-10-21T19:48:14.047Z,31.10
2018-10-21T19:50:42.542Z,27.10
2018-10-21T19:53:11.002Z,24.27
2018-10-21T19:55:39.637Z,22.87
2018-10-21T19:58:08.200Z,24.87
2018-10-21T20:00:36.646Z,23.93
2018-10-21T20:03:05.400Z,22.23
2018-10-21T20:05:33.930Z,25.17
2018-10-21T20:08:02.454Z,19.80
2018-10-21T20:10:31.521Z,22.67
2018-10-21T20:13:00.000Z,20.90
2018-10-21T20:15:28.510Z,18.73
2018-10-21T20:17:56.983Z,27.60
2018-10-21T20:20:25.435Z,19.23
2018-10-21T20:22:54.470Z,22.33
2018-10-21T20:25:23.009Z,19.10
2018-10-21T20:27:51.507Z,18.57
2018-10-21T20:30:19.949Z,19.40
2018-10-21T20:32:48.567Z,18.63
2018-10-21T20:35:17.027Z,18.17
2018-10-21T20:37:45.454Z,18.07
2018-10-21T20:40:13.990Z,18.57
2018-10-21T20:42:42.434Z,17.70
2018-10-21T20:45:12.499Z,16.07
2018-10-21T20:47:41.001Z,17.43
2018-10-21T20:50:09.682Z,12.77
2018-10-21T20:52:38.978Z,12.97
2018-10-21T20:55:07.735Z,14.33
2018-10-21T20:57:36.191Z,11.37
2018-10-21T21:00:05.071Z,13.43
2018-10-21T21:02:34.027Z,16.63
2018-10-21T21:05:02.578Z,15.93
2018-10-21T21:07:31.064Z,12.77
2018-10-21T21:09:59.589Z,15.93
2018-10-21T21:12:27.997Z,15.67
2018-10-21T21:14:56.473Z,16.57
2018-10-21T21:17:24.931Z,17.07
2018-10-21T21:19:53.456Z,16.67
2018-10-21T21:22:22.014Z,19.73
2018-10-21T21:24:50.565Z,15.43
2018-10-21T21:27:19.064Z,19.23
2018-10-21T21:29:47.540Z,16.17
2018-10-21T21:32:16.011Z,13.67
2018-10-21T21:34:44.472Z,16.37
2018-10-21T21:37:13.048Z,13.10
2018-10-21T21:39:41.659Z,16.23
2018-10-21T21:42:10.152Z,17.53
2018-10-21T21:44:38.741Z,15.13
2018-10-21T21:47:07.232Z,15.10
2018-10-21T21:49:35.661Z,16.47
2018-10-21T21:52:04.308Z,13.37
2018-10-21T21:54:32.771Z,18.87
2018-10-21T21:57:01.277Z,18.37
2018-10-21T21:59:29.774Z,14.13
2018-10-21T22:01:58.263Z,14.83
2018-10-21T22:04:26.761Z,12.17
2018-10-21T22:06:55.423Z,14.53
2018-10-21T22:09:23.896Z,11.00
2018-10-21T22:11:52.926Z,12.67
2018-10-21T22:14:21.366Z,14.00
2018-10-21T22:16:49.995Z,13.27
2018-10-21T22:19:18.581Z,12.77
2018-10-21T22:21:47.033Z,12.03
2018-10-21T22:24:15.572Z,10.17
2018-10-21T22:26:44.054Z,13.47
2018-10-21T22:29:12.569Z,12.97
2018-10-21T22:31:41.181Z,14.97
2018-10-21T22:34:09.669Z,14.10
2018-10-21T22:36:38.190Z,13.33
2018-10-21T22:39:07.475Z,12.40
2018-10-21T22:41:36.036Z,13.90
2018-10-21T22:44:04.919Z,13.63
2018-10-21T22:46:33.388Z,10.53
2018-10-21T22:49:01.830Z,11.00
2018-10-21T22:51:30.267Z,13.53
2018-10-21T22:53:58.781Z,13.10
2018-10-21T22:56:27.246Z,13.77
2018-10-21T22:58:55.692Z,11.97
2018-10-21T23:01:24.175Z,9.97
2018-10-21T23:03:52.933Z,11.70
2018-10-21T23:06:21.405Z,13.30
2018-10-21T23:08:49.837Z,13.10
2018-10-21T23:11:18.295Z,15.23
2018-10-21T23:13:46.754Z,11.67
2018-10-21T23:16:15.213Z,11.47
2018-10-21T23:18:43.723Z,12.53
2018-10-21T23:21:12.079Z,11.23
2018-10-21T23:23:41.149Z,12.33
2018-10-21T23:26:09.743Z,10.67
2018-10-21T23:28:38.240Z,10.43
2018-10-21T23:31:06.699Z,11.70
2018-10-21T23:33:35.155Z,11.37
2018-10-21T23:36:03.622Z,10.50
2018-10-21T23:38:32.213Z,14.87
2018-10-21T23:41:00.669Z,10.60
2018-10-21T23:43:29.093Z,10.83
2018-10-21T23:45:57.587Z,10.53
2018-10-21T23:48:26.076Z,10.83
2018-10-21T23:50:54.476Z,10.73
2018-10-21T23:53:22.886Z,10.73
2018-10-21T23:55:52.245Z,10.80
2018-10-21T23:58:20.753Z,10.87
